왕초보영어

토익자유게시판 토익을 준비하는 해티즌들이 자유롭게 이야기를 나누는 게시판입니다.

토익 mp3 무료배포

나만그런게 아니었군 ㅋㅋㅋ

1번문제 | 조회 1025 | 추천 0
  • 2020.07.12
  • 글꼴
  • 확대
  • 축소
팟1 1번부터 헷갈려서 개당황했네 ㅋㅋㅋㅋ
토익,토익인강
토익자유게시판
번호 제목 글쓴이 조회수 날짜
>> 나만그런게 아니었군 ㅋㅋㅋ [7] 1번문제 1026 2020.07.12
43526 취준생이라 계속 보고 있는데 [8] 아오 950 2020.07.12
43525 (듣기문제) 그림 나온 process 관련 문제 [1] 아랑 565 2020.07.12
43524 솔직히 이번토익 물, 불 어떤가요 [3] lc495 753 2020.07.12
43523 198 199 답이 뭔가요?? [6] ㅇㅇ 762 2020.07.12
43522 삼선중 [3] ㅇㅇ 194 2020.07.12
43521 팟5 베네핏이 답임? [1] ㅇㅇ 826 2020.07.12
43520 마지막 196-200번 정답이 먼가요 [1] 살아잇네 666 2020.07.12
43519 만약 알씨 엘씨 둘다 각각 -20개면 [5] ㅇㅇ 810 2020.07.12
43518 이번 LC난이도 [3] 480 420 774 2020.07.12
43517 파트7 museum 문제 빈칸삽입문제 [15] Rh 1418 2020.07.12
43516 오늘 시험 결과 언제 나오나요? [2] D 253 2020.07.12
43515 팟5 investments 다른보기 [2] 이이 353 2020.07.12
43514 보기에 even 있던거 답 뭐죠? [6] 99 1290 2020.07.12
43513 팟 5 contianed containing [6] 702 2020.07.12
43512 팟5 investments 다른 보기 [3] 이이 362 2020.07.12
43511 redeem말고 다른 보기가 뭐였죠? [3] dkx 550 2020.07.12
43510 팟2,3 너무 어려우ㅜ [4] ㅋㅋㅋ 303 2020.07.12
43509 부산 여명중 영어듣기 다시했네요 사진 [4] 여명중 776 2020.07.12
43508 팟5 contained containing [8] 805 2020.07.12
43507 부산 여명중 영어듣기 다시했네요 사진 [2] 여명중 248 2020.07.12
43506 맨발로 와서 시험내내 발 비비면서 때 빼는인간 [9] 어휴 526 2020.07.12
43505 파트1 5,6문제좀 [2] 444 419 2020.07.12
43504 듣기에서 temporary job 구하는 이유?? [17] 1657 2020.07.12
43503 에어컨 끄는거 문제있음 [13] 에어컨판매자 1475 2020.07.12
43502 감독빌런 [5] Da 348 2020.07.12
43501 연계지문 중에 [3] ㅇㅇ 352 2020.07.12
43500 200봄 답이 뮤ㅓㄴ가요 ㅠㅠ [3] 200번 544 2020.07.12
43499 번호는 모르겠고 whenever 아니에요? [18] 1344 2020.07.12
43498 의자랑램프잇던거답뭔가요? [6] ㅇㅇ 729 2020.07.12
43497 토익 첫 도전은 해커스에서!! [2] 인싸애타는가마솥 102 2020.07.12
43496 파7 Redeem~답임? [4] ㄹㄹ 1049 2020.07.12
43495 팟7 museum 리뷰문제 [10] ㅇㅇ 971 2020.07.12
43494 오늘 물토라는분들 물론 900점대 후반이시겠죠? [9] 716 2020.07.12
43493 117 120 선지 기억나시는분 [1] 217 2020.07.12
43492 토플 110따리 토익 2회차 관람평 [1] 110따리 281 2020.07.12
43491 엘씨 그래프 그리는 문제 [3] 그래프 그리기 640 2020.07.12
43490 파트1 1번 [2] ㅇㅇ 274 2020.07.12
43489 오늘 간만에 알씨 진짜 잘본것같은데 [7] ㅇㅇ 1184 2020.07.12
43488 오늘 토익 후 [4] ㅋㅋ 368 2020.07.12
43487 파트1 4번이 어떤 문제였죠?? [1] xjc 258 2020.07.12
43486 제발 LC때 에어컨 끄지 말아주세요ㅜㅜ [9] ㅇㅇ 661 2020.07.12
43485 어제 텝스 리스닝 만점 가까이 나왔는데 오늘 토익 리스닝 반타작.. [2] 집중안됨 343 2020.07.12
43484 팟 1중에서 한명의 여자가 안경을 쓰고있다 이거 아니죠? [4] 444 688 2020.07.12
43483 balance 답이 뭐임? [5] Bwiwjw 1319 2020.07.12
54,282개(240/1207페이지)

해커스영어는 유익한 게시판 이용을 위해 아래와 같은 내용을 포함한 게시글/댓글의 등록을 금지합니다.

[게시판 이용 안내 및 권리침해신고 자세히 보기]

전설토익, 종로토익

왜 해커스 빡센 스터디에 열광할까

실시간 정답확인

해커스어학원, 해커스토익, 토익강좌, 수강신청토익, 토익인강, 해커스 토익인강, 토익 0원, 토익 0원 프리패스, 0원 프리패스, 토익 시험, 취업, 해커스토익, 토익접수, 토익시험,